Time;durP1;ratioP1;P1;durP2;ratioP2;P2;SDS_P1;SDS_P2;PMS_P1;PMS_P2;Temp;Humidity;BMP_temperature;BMP_pressure;BME280_temperature;BME280_humidity;BME280_pressure;Samples;Min_cycle;Max_cycle;Signal;HPM_P1;HPM_P2
2022/10/21 00:00:59;;;;;;;43.80;21.00;;;;;;;1.03;67.70;99749.90;103075;1306;107164;-78
2022/10/21 00:03:38;;;;;;;36.80;18.10;;;;;;;1.06;67.87;99747.75;103060;1302;95314;-78
2022/10/21 00:06:09;;;;;;;38.40;19.30;;;;;;;1.06;67.85;99743.38;103113;1296;97941;-78
2022/10/21 00:08:38;;;;;;;39.40;19.50;;;;;;;1.05;67.88;99736.58;103159;1290;109999;-78
2022/10/21 00:11:09;;;;;;;38.70;17.00;;;;;;;1.05;67.97;99732.75;103145;1304;97681;-77
2022/10/21 00:13:38;;;;;;;37.40;18.40;;;;;;;1.06;67.94;99730.10;103164;1304;108854;-78
2022/10/21 00:16:15;;;;;;;36.50;18.80;;;;;;;1.09;68.11;99726.55;103373;1298;97965;-77
2022/10/21 00:18:48;;;;;;;41.90;20.80;;;;;;;1.12;68.10;99723.85;103287;1307;97865;-77
2022/10/21 00:21:21;;;;;;;35.60;17.70;;;;;;;1.15;67.94;99721.88;103020;1301;111173;-76
2022/10/21 00:23:49;;;;;;;40.20;21.90;;;;;;;1.16;67.94;99714.34;103082;1297;98007;-78
2022/10/21 00:26:19;;;;;;;44.70;22.90;;;;;;;1.18;68.06;99719.17;103035;1303;107486;-77
2022/10/21 00:28:50;;;;;;;49.30;25.60;;;;;;;1.19;68.00;99715.14;103037;1304;98002;-76
2022/10/21 00:31:18;;;;;;;48.70;24.40;;;;;;;1.18;67.96;99717.42;103058;1304;95203;-76
2022/10/21 00:33:45;;;;;;;47.90;25.70;;;;;;;1.17;67.87;99717.29;103012;1304;111135;-77
2022/10/21 00:36:14;;;;;;;49.90;29.10;;;;;;;1.17;68.12;99716.58;103110;1304;97854;-77
2022/10/21 00:38:47;;;;;;;71.00;37.70;;;;;;;1.16;68.01;99715.03;103086;1301;107525;-78
2022/10/21 00:41:18;;;;;;;74.60;40.10;;;;;;;1.13;68.02;99720.16;103104;1296;98021;-78
2022/10/21 00:43:57;;;;;;;75.00;38.40;;;;;;;1.11;68.04;99723.71;103090;1297;98008;-79
2022/10/21 00:46:40;;;;;;;62.80;33.30;;;;;;;1.09;68.02;99718.85;103088;1300;110853;-78
2022/10/21 00:49:22;;;;;;;47.00;26.20;;;;;;;1.08;68.12;99712.95;103156;1297;98218;-76
2022/10/21 00:51:56;;;;;;;43.00;23.50;;;;;;;1.05;68.22;99710.02;103138;1304;107499;-78
2022/10/21 00:54:27;;;;;;;50.40;24.90;;;;;;;1.04;68.32;99711.98;103104;1298;97889;-77
2022/10/21 00:56:57;;;;;;;49.20;23.20;;;;;;;1.03;68.28;99708.67;103045;1304;97905;-77
2022/10/21 00:59:31;;;;;;;48.20;25.70;;;;;;;1.04;68.38;99707.79;103008;1300;111151;-77
2022/10/21 01:01:59;;;;;;;;;;;;;;;1.07;68.46;99705.65;103114;1296;97735;-77
2022/10/21 01:04:28;;;;;;;82.10;39.10;;;;;;;1.07;68.51;99701.29;103032;1297;107618;-77
2022/10/21 01:06:59;;;;;;;70.40;35.20;;;;;;;1.08;68.49;99696.55;103051;1304;96640;-76
2022/10/21 01:09:29;;;;;;;71.80;33.30;;;;;;;1.07;68.41;99688.34;103072;1303;95146;-78
2022/10/21 01:12:01;;;;;;;67.00;34.80;;;;;;;1.06;68.35;99680.68;103157;1304;111203;-78
2022/10/21 01:14:54;;;;;;;73.60;36.70;;;;;;;1.05;68.32;99675.28;103094;1304;97997;-78
2022/10/21 01:17:34;;;;;;;61.50;32.80;;;;;;;1.03;68.34;99676.56;103019;1304;107381;-76
2022/10/21 01:20:29;;;;;;;62.60;33.90;;;;;;;1.00;68.46;99677.49;103052;1296;97913;-76
2022/10/21 01:23:34;;;;;;;63.50;34.20;;;;;;;1.00;68.32;99676.30;103033;1304;97855;-78
2022/10/21 01:26:24;;;;;;;63.60;33.60;;;;;;;0.98;68.46;99674.95;103032;1304;111272;-76
2022/10/21 01:29:17;;;;;;;54.30;29.20;;;;;;;0.96;68.44;99668.86;103078;1296;97868;-77
2022/10/21 01:32:05;;;;;;;57.50;27.70;;;;;;;0.96;68.36;99662.75;103058;1298;107614;-77
2022/10/21 01:35:01;;;;;;;61.50;30.90;;;;;;;0.96;68.61;99664.50;103056;1297;97073;-78
2022/10/21 01:37:56;;;;;;;52.80;28.30;;;;;;;0.96;68.53;99663.10;103057;1303;97984;-78
2022/10/21 01:40:54;;;;;;;56.40;28.60;;;;;;;0.97;68.57;99658.02;103133;1304;111198;-77
2022/10/21 01:43:28;;;;;;;47.50;23.20;;;;;;;0.98;68.73;99644.21;103128;1303;97949;-78
2022/10/21 01:46:25;;;;;;;44.20;24.90;;;;;;;0.99;68.68;99641.04;103017;1304;107622;-78
2022/10/21 01:49:10;;;;;;;45.20;23.80;;;;;;;1.01;68.90;99634.70;103001;1297;97113;-76
2022/10/21 01:51:39;;;;;;;58.90;31.40;;;;;;;1.03;68.63;99641.98;103176;1297;97917;-77
2022/10/21 01:54:15;;;;;;;55.30;30.40;;;;;;;1.04;68.61;99646.31;103084;1304;110998;-78
2022/10/21 01:56:47;;;;;;;61.30;32.50;;;;;;;1.04;68.55;99643.86;103129;1305;97885;-76
2022/10/21 01:59:19;;;;;;;63.10;33.90;;;;;;;1.04;68.58;99642.30;103157;1304;107461;-78
2022/10/21 02:01:51;;;;;;;64.80;32.60;;;;;;;1.04;68.65;99637.05;103106;1290;95156;-78
2022/10/21 02:04:23;;;;;;;59.70;32.50;;;;;;;1.02;68.56;99635.20;103159;1304;96564;-79
2022/10/21 02:06:51;;;;;;;60.20;32.20;;;;;;;0.98;68.52;99632.15;103155;1298;110832;-78
2022/10/21 02:09:19;;;;;;;63.20;35.00;;;;;;;0.94;68.58;99627.86;103121;1290;97888;-79
2022/10/21 02:11:52;;;;;;;64.10;34.50;;;;;;;0.89;68.51;99625.89;102994;1304;106704;-78
2022/10/21 02:14:31;;;;;;;68.80;37.40;;;;;;;0.86;68.72;99619.50;103149;1304;98022;-78
2022/10/21 02:17:00;;;;;;;63.60;33.80;;;;;;;0.82;68.55;99615.23;103164;1296;98030;-78
2022/10/21 02:19:30;;;;;;;67.20;36.20;;;;;;;0.77;68.68;99612.05;103170;1303;110270;-77
2022/10/21 02:22:09;;;;;;;62.60;33.40;;;;;;;0.75;68.64;99614.70;103175;1299;98215;-78
2022/10/21 02:24:55;;;;;;;60.90;31.60;;;;;;;0.72;68.62;99611.61;103185;1304;107466;-77
2022/10/21 02:27:23;;;;;;;60.30;32.10;;;;;;;0.69;68.63;99608.37;103167;1298;96293;-80
2022/10/21 02:29:58;;;;;;;66.00;37.50;;;;;;;0.67;68.60;99614.17;103046;1293;98078;-79
2022/10/21 02:32:32;;;;;;;71.50;33.90;;;;;;;0.66;68.74;99613.87;103174;1303;111120;-78
2022/10/21 02:35:26;;;;;;;;;;;;;;;0.64;68.82;99609.02;103241;1290;97922;-78
2022/10/21 02:38:14;;;;;;;66.70;36.10;;;;;;;0.59;68.74;99607.73;102986;1304;107576;-77
2022/10/21 02:41:04;;;;;;;69.90;35.70;;;;;;;0.59;68.76;99605.65;103160;1297;97920;-77
2022/10/21 02:43:46;;;;;;;73.40;37.40;;;;;;;0.57;68.80;99602.73;103077;1288;97961;-80
2022/10/21 02:46:14;;;;;;;76.00;40.00;;;;;;;0.53;68.78;99600.36;103151;1301;110672;-82
2022/10/21 02:48:47;;;;;;;72.40;37.70;;;;;;;0.51;68.70;99599.37;102999;1298;95224;-84
2022/10/21 02:51:16;;;;;;;76.20;40.70;;;;;;;0.48;68.66;99597.00;103078;1297;106657;-82
2022/10/21 02:53:45;;;;;;;69.50;36.90;;;;;;;0.44;68.75;99597.08;103153;1303;98022;-82
2022/10/21 02:56:13;;;;;;;76.10;37.90;;;;;;;0.43;68.77;99593.11;103058;1304;97979;-83
2022/10/21 02:58:42;;;;;;;70.60;37.20;;;;;;;0.42;68.66;99589.11;103133;1302;111011;-83
2022/10/21 03:01:09;;;;;;;69.50;36.80;;;;;;;0.40;68.75;99588.63;103149;1297;97914;-84
2022/10/21 03:03:37;;;;;;;71.70;36.10;;;;;;;0.37;68.68;99589.23;103110;1303;107483;-82
2022/10/21 03:06:05;;;;;;;69.00;38.40;;;;;;;0.35;68.68;99586.65;103112;1296;97874;-84
2022/10/21 03:08:35;;;;;;;64.40;35.70;;;;;;;0.29;68.73;99575.95;103164;1303;97980;-78
2022/10/21 03:11:04;;;;;;;67.60;37.40;;;;;;;0.27;68.74;99576.35;103090;1305;111138;-79
2022/10/21 03:13:31;;;;;;;74.70;35.40;;;;;;;0.26;68.84;99582.46;103156;1304;97981;-78
2022/10/21 03:16:00;;;;;;;72.20;37.10;;;;;;;0.25;68.80;99584.06;103107;1299;107289;-76
2022/10/21 03:18:28;;;;;;;75.40;39.50;;;;;;;0.24;68.75;99581.47;103038;1290;97897;-79
2022/10/21 03:20:56;;;;;;;76.90;38.00;;;;;;;0.20;68.68;99577.54;103081;1301;97890;-77
2022/10/21 03:23:24;;;;;;;68.20;35.70;;;;;;;0.15;68.61;99573.83;103070;1284;111101;-76
2022/10/21 03:25:51;;;;;;;72.60;36.10;;;;;;;0.11;68.90;99570.95;103081;1297;95341;-78
2022/10/21 03:28:19;;;;;;;74.20;37.50;;;;;;;0.10;68.91;99565.73;102947;1302;107500;-76
2022/10/21 03:30:48;;;;;;;68.70;36.70;;;;;;;0.09;69.01;99564.52;103087;1297;97862;-77
2022/10/21 03:33:16;;;;;;;74.00;39.20;;;;;;;0.08;69.11;99564.53;103117;1296;97903;-77
2022/10/21 03:35:45;;;;;;;67.00;37.60;;;;;;;0.04;68.76;99561.00;103121;1299;111157;-80
2022/10/21 03:38:13;;;;;;;71.70;37.10;;;;;;;-0.03;68.77;99560.61;103082;1298;97958;-80
2022/10/21 03:40:41;;;;;;;69.60;37.60;;;;;;;-0.09;69.24;99563.88;103093;1297;107452;-80
2022/10/21 03:43:09;;;;;;;67.30;36.50;;;;;;;-0.13;68.92;99564.48;103171;1303;97962;-83
2022/10/21 03:45:37;;;;;;;70.60;36.80;;;;;;;-0.17;68.82;99561.93;103211;1296;96581;-80
2022/10/21 03:48:05;;;;;;;69.40;36.20;;;;;;;-0.18;68.90;99558.47;103707;1304;110803;-81
2022/10/21 03:50:32;;;;;;;66.10;33.80;;;;;;;-0.18;69.26;99559.16;103335;1297;97883;-80
2022/10/21 03:53:00;;;;;;;64.50;33.90;;;;;;;-0.19;69.18;99564.07;103211;1304;106444;-81
2022/10/21 03:55:41;;;;;;;63.20;34.90;;;;;;;-0.19;69.28;99570.69;103126;1303;98446;-83
2022/10/21 03:58:09;;;;;;;63.20;33.70;;;;;;;-0.19;69.08;99562.66;103169;1304;97888;-81
2022/10/21 04:00:37;;;;;;;62.00;32.60;;;;;;;-0.17;69.25;99565.77;103196;1295;111237;-78
2022/10/21 04:03:04;;;;;;;60.00;32.50;;;;;;;-0.14;69.18;99566.41;103173;1300;95133;-79
2022/10/21 04:05:32;;;;;;;60.10;32.10;;;;;;;-0.11;69.33;99564.95;103074;1304;105816;-77
2022/10/21 04:08:01;;;;;;;61.70;32.00;;;;;;;-0.08;69.27;99564.36;102898;1307;98099;-79
2022/10/21 04:10:29;;;;;;;58.20;30.40;;;;;;;-0.05;69.36;99552.65;103061;1300;98086;-80
2022/10/21 04:12:57;;;;;;;58.60;33.20;;;;;;;-0.03;69.42;99547.17;103080;1290;111088;-81
2022/10/21 04:15:25;;;;;;;60.90;31.50;;;;;;;-0.00;69.29;99544.34;103157;1298;97868;-80
2022/10/21 04:17:55;;;;;;;62.40;30.40;;;;;;;0.02;69.30;99538.52;103089;1304;107477;-80
2022/10/21 04:20:23;;;;;;;60.00;30.80;;;;;;;0.04;69.27;99537.60;103112;1304;97777;-83
2022/10/21 04:22:51;;;;;;;61.10;31.90;;;;;;;0.05;69.17;99541.25;103127;1303;97974;-81
2022/10/21 04:25:20;;;;;;;64.90;32.50;;;;;;;0.05;69.36;99524.86;102984;1307;111198;-80
2022/10/21 04:27:47;;;;;;;59.50;30.90;;;;;;;0.06;69.30;99518.90;103109;1307;97823;-80
2022/10/21 04:30:16;;;;;;;57.50;29.00;;;;;;;0.08;69.31;99515.89;103090;1296;107585;-81
2022/10/21 04:32:44;;;;;;;59.30;31.60;;;;;;;0.10;69.27;99516.39;103113;1304;97925;-79
2022/10/21 04:35:14;;;;;;;58.40;30.70;;;;;;;0.09;69.29;99515.88;103122;1297;97869;-78
2022/10/21 04:37:43;;;;;;;59.80;31.60;;;;;;;0.08;69.19;99515.20;103102;1304;110919;-79
2022/10/21 04:40:10;;;;;;;59.80;31.60;;;;;;;0.07;69.25;99512.07;103112;1297;97874;-78
2022/10/21 04:42:40;;;;;;;54.00;25.50;;;;;;;0.06;69.27;99516.64;103109;1304;106407;-80
2022/10/21 04:45:08;;;;;;;59.00;31.30;;;;;;;0.06;69.34;99512.96;102994;1304;177518;-80
2022/10/21 04:47:38;;;;;;;55.20;29.20;;;;;;;0.07;69.43;99511.21;103171;1296;97860;-80
2022/10/21 04:50:07;;;;;;;58.80;30.80;;;;;;;0.06;69.39;99511.92;103177;1303;109818;-81
2022/10/21 04:52:39;;;;;;;58.80;30.90;;;;;;;0.05;69.32;99512.30;103184;1297;97970;-79
2022/10/21 04:55:08;;;;;;;63.50;31.00;;;;;;;0.04;69.33;99508.50;103133;1296;107521;-80
2022/10/21 04:57:35;;;;;;;66.60;33.70;;;;;;;0.03;69.38;99505.55;102902;1299;98618;-81
2022/10/21 05:00:06;;;;;;;62.50;30.30;;;;;;;0.02;69.31;99502.61;103185;1296;97975;-84
2022/10/21 05:02:34;;;;;;;55.40;28.60;;;;;;;0.01;69.29;99494.62;103185;1303;111147;-81
2022/10/21 05:05:03;;;;;;;58.90;32.40;;;;;;;0.01;69.37;99496.52;103103;1298;97975;-81
2022/10/21 05:07:31;;;;;;;60.60;33.70;;;;;;;0.02;69.32;99493.72;103129;1303;107561;-83
2022/10/21 05:09:58;;;;;;;63.90;34.20;;;;;;;0.01;69.32;99491.65;103111;1300;96441;-80
2022/10/21 05:12:26;;;;;;;62.90;34.30;;;;;;;0.01;69.38;99489.55;103258;1304;95778;-79
2022/10/21 05:14:54;;;;;;;58.80;33.50;;;;;;;0.01;69.32;99484.67;103112;1303;110154;-81
2022/10/21 05:17:23;;;;;;;62.60;33.90;;;;;;;0.02;69.37;99482.39;103167;1302;95129;-80
2022/10/21 05:19:51;;;;;;;59.00;32.90;;;;;;;0.03;69.36;99476.77;103128;1303;107468;-85
2022/10/21 05:22:19;;;;;;;66.10;31.60;;;;;;;0.05;69.45;99480.05;103209;1301;97944;-83
2022/10/21 05:24:49;;;;;;;55.70;30.70;;;;;;;0.05;69.47;99474.64;103267;1300;95859;-83
2022/10/21 05:27:17;;;;;;;60.30;29.90;;;;;;;0.06;69.49;99475.14;103213;1298;111027;-87
2022/10/21 05:29:46;;;;;;;65.60;31.50;;;;;;;0.08;69.53;99469.34;103108;1293;97924;-86
2022/10/21 05:32:16;;;;;;;56.40;31.30;;;;;;;0.10;69.45;99465.46;103224;1303;106727;-82
2022/10/21 05:34:44;;;;;;;55.70;31.90;;;;;;;0.11;69.61;99461.41;103164;1300;97966;-83
2022/10/21 05:37:12;;;;;;;61.20;31.80;;;;;;;0.12;69.51;99464.36;103236;1297;97926;-81
2022/10/21 05:39:41;;;;;;;58.90;32.60;;;;;;;0.13;69.52;99461.36;103197;1300;111102;-81
2022/10/21 05:42:09;;;;;;;57.10;30.10;;;;;;;0.15;69.62;99459.94;102999;1307;97996;-84
2022/10/21 05:44:37;;;;;;;63.00;30.50;;;;;;;0.16;69.48;99456.61;103154;1296;107741;-80
2022/10/21 05:47:05;;;;;;;56.30;28.00;;;;;;;0.19;69.68;99456.54;103153;1303;97980;-80
2022/10/21 05:49:32;;;;;;;58.70;30.00;;;;;;;0.21;69.68;99455.79;103063;1298;95215;-84
2022/10/21 05:52:01;;;;;;;52.20;29.20;;;;;;;0.22;69.62;99456.27;103124;1304;111115;-82
2022/10/21 05:54:29;;;;;;;51.90;28.90;;;;;;;0.26;69.72;99457.59;103162;1298;97878;-82
2022/10/21 05:56:57;;;;;;;53.70;26.90;;;;;;;0.29;69.72;99458.90;103143;1303;107216;-81
2022/10/21 05:59:26;;;;;;;57.40;30.20;;;;;;;0.35;69.84;99466.96;103151;1304;97993;-80
2022/10/21 06:01:54;;;;;;;52.50;28.10;;;;;;;0.39;69.85;99470.36;103038;1303;97880;-79
2022/10/21 06:04:25;;;;;;;50.70;29.00;;;;;;;0.45;69.95;99474.57;103047;1296;111114;-79
2022/10/21 06:06:56;;;;;;;54.50;28.10;;;;;;;0.50;69.82;99476.37;103067;1297;98012;-82
2022/10/21 06:09:25;;;;;;;52.10;26.90;;;;;;;0.55;69.83;99475.02;103206;1296;107425;-84
2022/10/21 06:11:56;;;;;;;48.00;26.30;;;;;;;0.61;69.91;99474.52;103196;1304;97998;-80
2022/10/21 06:14:26;;;;;;;51.30;26.90;;;;;;;0.67;70.07;99473.13;103247;1303;97887;-76
2022/10/21 06:16:56;;;;;;;52.40;29.40;;;;;;;0.74;69.93;99465.98;103122;1290;111126;-80
2022/10/21 06:19:24;;;;;;;56.50;30.10;;;;;;;0.81;69.97;99464.39;103110;1296;97298;-77
2022/10/21 06:21:53;;;;;;;61.00;34.90;;;;;;;0.87;70.05;99460.57;103138;1300;107497;-81
2022/10/21 06:24:21;;;;;;;63.90;35.10;;;;;;;0.93;70.10;99460.62;103147;1303;96085;-75
2022/10/21 06:26:50;;;;;;;62.80;34.20;;;;;;;0.99;70.07;99462.73;103084;1296;97888;-78
2022/10/21 06:29:18;;;;;;;62.70;32.60;;;;;;;1.05;70.09;99462.02;103061;1298;109620;-77
2022/10/21 06:31:46;;;;;;;58.40;32.20;;;;;;;1.11;70.24;99461.86;103045;1304;98031;-78
2022/10/21 06:34:15;;;;;;;62.30;33.00;;;;;;;1.18;70.03;99463.77;103010;1297;107133;-78
2022/10/21 06:36:45;;;;;;;61.40;32.20;;;;;;;1.25;70.41;99467.59;103039;1304;97851;-78
2022/10/21 06:39:13;;;;;;;60.00;31.70;;;;;;;1.32;70.14;99472.65;102896;1306;95173;-77
2022/10/21 06:41:40;;;;;;;63.90;31.40;;;;;;;1.38;70.19;99473.00;103101;1298;111227;-78
2022/10/21 06:44:08;;;;;;;60.80;31.90;;;;;;;1.44;70.24;99471.24;103171;1303;97956;-78
2022/10/21 06:46:38;;;;;;;66.30;32.50;;;;;;;1.51;70.20;99470.71;103113;1298;107412;-77
2022/10/21 06:49:06;;;;;;;65.80;33.30;;;;;;;1.56;70.31;99466.36;103122;1307;97989;-79
2022/10/21 06:51:33;;;;;;;65.80;32.50;;;;;;;1.63;70.26;99467.05;103131;1302;97841;-77
2022/10/21 06:54:01;;;;;;;60.20;32.50;;;;;;;1.70;70.36;99471.91;103081;1302;110809;-76
2022/10/21 06:56:30;;;;;;;58.20;30.70;;;;;;;1.73;70.28;99470.40;103098;1303;97975;-77
2022/10/21 06:59:00;;;;;;;52.90;29.20;;;;;;;1.83;70.48;99473.64;103043;1298;107227;-78
2022/10/21 07:01:35;;;;;;;49.40;26.20;;;;;;;1.90;70.69;99478.83;103059;1297;97907;-77
2022/10/21 07:04:24;;;;;;;50.70;26.90;;;;;;;1.98;70.70;99484.36;103091;1297;97867;-76
2022/10/21 07:06:53;;;;;;;54.50;26.00;;;;;;;2.06;70.65;99487.95;103069;1297;111342;-78
2022/10/21 07:09:20;;;;;;;49.10;25.20;;;;;;;2.14;70.46;99490.33;103079;1296;95222;-77
2022/10/21 07:11:48;;;;;;;53.40;25.60;;;;;;;2.24;70.59;99486.36;103065;1297;107481;-78
2022/10/21 07:14:16;;;;;;;49.50;26.20;;;;;;;2.32;70.62;99482.94;102983;1306;95236;-78
2022/10/21 07:16:44;;;;;;;50.10;24.20;;;;;;;2.41;70.54;99478.46;102899;1306;97981;-77
2022/10/21 07:19:15;;;;;;;46.40;25.30;;;;;;;2.51;70.72;99476.02;103088;1304;111112;-78
2022/10/21 07:21:43;;;;;;;45.00;23.20;;;;;;;2.61;70.60;99475.02;103184;1298;97792;-78
2022/10/21 07:24:12;;;;;;;41.60;21.80;;;;;;;2.70;70.84;99470.67;103167;1296;107429;-76
2022/10/21 07:26:40;;;;;;;43.80;22.60;;;;;;;2.79;70.71;99469.52;103150;1302;95847;-80
2022/10/21 07:29:09;;;;;;;40.10;21.60;;;;;;;2.90;70.70;99474.90;103153;1304;96873;-77
2022/10/21 07:31:38;;;;;;;38.60;20.40;;;;;;;3.01;70.79;99467.35;103061;1303;111091;-78
2022/10/21 07:34:11;;;;;;;45.10;22.20;;;;;;;3.13;70.88;99464.30;102939;1305;97957;-78
2022/10/21 07:36:46;;;;;;;32.80;17.50;;;;;;;3.25;70.97;99461.77;103072;1304;107433;-77
2022/10/21 07:39:21;;;;;;;42.40;22.30;;;;;;;3.38;70.76;99462.17;102931;1307;98084;-77
2022/10/21 07:41:56;;;;;;;41.10;21.20;;;;;;;3.51;70.75;99456.09;102808;1297;97961;-77
2022/10/21 07:44:25;;;;;;;42.80;21.20;;;;;;;3.63;71.10;99447.74;103062;1302;111338;-82
2022/10/21 07:46:53;;;;;;;37.90;20.80;;;;;;;3.76;71.18;99443.40;103288;1303;97893;-81
2022/10/21 07:49:23;;;;;;;38.50;20.50;;;;;;;3.89;71.36;99439.89;103256;1306;107117;-76
2022/10/21 07:51:51;;;;;;;39.70;20.90;;;;;;;4.04;70.97;99430.89;103054;1298;97880;-78
2022/10/21 07:54:21;;;;;;;38.70;20.30;;;;;;;4.20;71.25;99425.89;103049;1302;98030;-79
2022/10/21 07:56:51;;;;;;;34.00;16.60;;;;;;;4.37;71.10;99425.02;103036;1296;110492;-79
2022/10/21 07:59:21;;;;;;;33.30;17.10;;;;;;;4.54;71.13;99419.92;102990;1304;97864;-83
2022/10/21 08:01:52;;;;;;;29.80;15.10;;;;;;;4.75;71.34;99417.43;103198;1303;107477;-79
2022/10/21 08:04:23;;;;;;;28.70;14.40;;;;;;;4.97;71.42;99417.00;102945;1303;97949;-78
2022/10/21 08:06:52;;;;;;;24.90;13.20;;;;;;;5.24;71.56;99411.27;103075;1296;97892;-78
2022/10/21 08:09:21;;;;;;;26.60;11.00;;;;;;;5.56;71.66;99401.19;103008;1296;111309;-80
2022/10/21 08:11:49;;;;;;;21.00;9.10;;;;;;;5.85;71.48;99400.73;103017;1305;97991;-79
2022/10/21 08:14:17;;;;;;;14.90;6.20;;;;;;;6.14;71.55;99407.80;102824;1301;107513;-80
2022/10/21 08:16:45;;;;;;;16.40;6.20;;;;;;;6.52;71.70;99409.46;102941;1304;97878;-78
2022/10/21 08:19:18;;;;;;;16.10;5.60;;;;;;;6.88;71.55;99404.27;103008;1297;97890;-77
2022/10/21 08:21:46;;;;;;;19.30;6.00;;;;;;;7.25;71.47;99398.81;102981;1305;111075;-79
2022/10/21 08:24:14;;;;;;;12.40;5.10;;;;;;;7.58;70.50;99398.63;103063;1298;97968;-78
2022/10/21 08:26:44;;;;;;;15.10;5.30;;;;;;;7.91;70.96;99395.08;102958;1298;108134;-78
2022/10/21 08:29:12;;;;;;;12.40;4.90;;;;;;;8.22;70.76;99393.66;102946;1306;97985;-77
2022/10/21 08:31:40;;;;;;;11.40;5.10;;;;;;;8.57;70.84;99395.73;102950;1303;97988;-77
2022/10/21 08:34:09;;;;;;;9.10;4.10;;;;;;;8.94;70.64;99397.95;103017;1296;111154;-79
2022/10/21 08:36:38;;;;;;;11.10;4.60;;;;;;;9.27;70.48;99401.96;103089;1297;97976;-79
2022/10/21 08:39:06;;;;;;;9.60;4.00;;;;;;;9.53;70.48;99407.11;102849;1299;107410;-82
2022/10/21 08:42:12;;;;;;;9.80;4.00;;;;;;;9.79;70.24;99408.27;103195;1311;97859;-79
2022/10/21 08:44:58;;;;;;;10.40;4.30;;;;;;;10.04;70.28;99397.11;103274;1304;97960;-81
2022/10/21 08:47:44;;;;;;;9.80;4.30;;;;;;;10.25;70.04;99392.62;103187;1294;110627;-82
2022/10/21 08:50:24;;;;;;;10.60;4.20;;;;;;;10.55;70.28;99389.90;103218;1301;95840;-80
2022/10/21 08:53:19;;;;;;;10.20;4.00;;;;;;;10.92;69.82;99392.20;102999;1302;108639;-81
2022/10/21 08:55:52;;;;;;;8.00;3.70;;;;;;;11.30;69.40;99375.05;103001;1303;97157;-78
2022/10/21 08:58:24;;;;;;;10.80;3.50;;;;;;;11.59;69.64;99378.69;103218;1305;97795;-81
2022/10/21 09:01:22;;;;;;;7.80;3.70;;;;;;;11.89;68.56;99371.02;102903;1307;111145;-85
2022/10/21 09:04:10;;;;;;;10.80;3.30;;;;;;;12.21;67.73;99365.33;103044;1302;97893;-78
2022/10/21 09:07:08;;;;;;;7.00;3.00;;;;;;;12.55;68.20;99359.72;103077;1298;107569;-81
2022/10/21 09:09:53;;;;;;;10.30;3.40;;;;;;;12.92;66.68;99368.15;102982;1311;97884;-80
2022/10/21 09:12:43;;;;;;;10.90;3.10;;;;;;;13.25;66.46;99362.54;102981;1306;97909;-78
2022/10/21 09:15:28;;;;;;;5.70;2.70;;;;;;;13.63;65.97;99355.98;102979;1305;111154;-77
2022/10/21 09:18:06;;;;;;;7.40;2.80;;;;;;;13.97;65.99;99353.39;102972;1303;95269;-79
2022/10/21 09:20:51;;;;;;;8.80;2.80;;;;;;;14.36;65.82;99354.81;103033;1303;107578;-77
2022/10/21 09:23:36;;;;;;;7.60;2.90;;;;;;;14.77;65.80;99349.26;103007;1303;97784;-78
2022/10/21 09:26:30;;;;;;;8.40;3.00;;;;;;;14.97;66.31;99342.63;103099;1306;97972;-83
2022/10/21 09:29:01;;;;;;;;;;;;;;;15.00;65.77;99345.73;103276;1303;110873;-75
2022/10/21 09:31:29;;;;;;;7.40;2.70;;;;;;;14.94;64.81;99341.09;103069;1302;97952;-82
2022/10/21 09:34:08;;;;;;;7.40;3.10;;;;;;;14.83;64.04;99343.44;103217;1303;107516;-78
2022/10/21 09:36:46;;;;;;;11.10;2.90;;;;;;;14.67;64.04;99342.59;102994;1307;98245;-80
2022/10/21 09:39:37;;;;;;;7.20;3.10;;;;;;;14.52;59.52;99337.26;103008;1305;95961;-77
2022/10/21 09:42:05;;;;;;;7.10;2.80;;;;;;;14.42;62.69;99327.90;103027;1304;111249;-79
2022/10/21 09:44:51;;;;;;;7.00;3.00;;;;;;;14.42;63.19;99324.86;102992;1304;98090;-79
2022/10/21 09:47:23;;;;;;;8.80;2.90;;;;;;;14.53;63.29;99325.77;102966;1297;108105;-79
2022/10/21 09:49:57;;;;;;;8.50;2.70;;;;;;;14.62;61.56;99330.03;102968;1297;97858;-78
2022/10/21 09:52:37;;;;;;;8.20;3.20;;;;;;;14.56;61.54;99326.23;102991;1308;97893;-81
2022/10/21 09:55:12;;;;;;;7.30;2.90;;;;;;;14.53;61.11;99323.41;103292;1302;110763;-81
2022/10/21 09:57:54;;;;;;;8.00;2.50;;;;;;;14.55;61.47;99316.63;103291;1296;97979;-79
2022/10/21 10:00:38;;;;;;;9.10;3.00;;;;;;;14.70;60.67;99316.35;102967;1296;107508;-78
2022/10/21 10:03:08;;;;;;;6.10;2.50;;;;;;;14.84;61.13;99311.95;103028;1304;96386;-79
2022/10/21 10:05:46;;;;;;;8.40;2.80;;;;;;;14.93;59.74;99312.42;103194;1303;97132;-78
2022/10/21 10:08:42;;;;;;;8.00;2.90;;;;;;;14.94;60.78;99311.21;103042;1303;111182;-78
2022/10/21 10:11:15;;;;;;;6.30;2.70;;;;;;;15.07;59.89;99314.03;103032;1296;100429;-80
2022/10/21 10:13:50;;;;;;;5.40;2.50;;;;;;;15.22;60.83;99304.23;102978;1297;105417;-78
2022/10/21 10:16:21;;;;;;;8.90;2.50;;;;;;;15.33;60.10;99303.73;102924;1298;97973;-78
2022/10/21 10:18:53;;;;;;;7.70;2.80;;;;;;;15.36;59.76;99307.36;103325;1303;100169;-79
2022/10/21 10:21:21;;;;;;;4.40;2.60;;;;;;;15.30;58.95;99295.97;103279;1302;110723;-78
2022/10/21 10:23:53;;;;;;;4.50;2.10;;;;;;;15.37;59.45;99293.38;102970;1305;98669;-79
2022/10/21 10:26:29;;;;;;;4.60;2.30;;;;;;;15.48;59.16;99286.31;102970;1305;107470;-80
2022/10/21 10:29:15;;;;;;;8.20;2.90;;;;;;;15.61;58.32;99290.58;102944;1305;98025;-81
2022/10/21 10:31:56;;;;;;;7.80;3.20;;;;;;;15.62;58.29;99293.12;103101;1303;98300;-78
2022/10/21 10:34:39;;;;;;;8.00;3.00;;;;;;;15.66;58.64;99293.16;102954;1302;110530;-80
2022/10/21 10:37:17;;;;;;;8.30;3.20;;;;;;;15.70;58.43;99293.80;103021;1296;95199;-80
2022/10/21 10:39:51;;;;;;;6.30;2.90;;;;;;;15.69;58.22;99296.11;102959;1303;107374;-78
2022/10/21 10:42:23;;;;;;;9.10;3.70;;;;;;;15.73;58.24;99294.48;103021;1303;98043;-80
2022/10/21 10:44:55;;;;;;;7.60;3.00;;;;;;;15.78;57.39;99289.73;103107;1302;97898;-78
2022/10/21 10:47:29;;;;;;;7.50;2.90;;;;;;;15.76;55.83;99287.23;103055;1288;111156;-89
2022/10/21 10:49:58;;;;;;;10.30;3.10;;;;;;;15.71;54.75;99288.52;103312;1305;97780;-84
2022/10/21 10:52:26;;;;;;;8.50;2.70;;;;;;;15.75;56.57;99280.81;103330;1303;108139;-85
2022/10/21 10:55:15;;;;;;;5.80;2.40;;;;;;;15.76;56.20;99281.16;103650;1298;97981;-88
2022/10/21 10:57:48;;;;;;;3.80;2.30;;;;;;;15.72;54.98;99275.23;103561;1298;98490;-82
2022/10/21 11:00:44;;;;;;;5.90;2.10;;;;;;;15.52;54.40;99270.43;103273;1305;110391;-82
2022/10/21 11:03:27;;;;;;;5.70;2.50;;;;;;;15.37;53.87;99267.45;103276;1302;97933;-87
2022/10/21 11:06:07;;;;;;;4.20;2.10;;;;;;;15.20;51.37;99259.00;103254;1298;107466;-86
2022/10/21 11:08:45;;;;;;;5.30;2.30;;;;;;;15.05;52.14;99257.13;103229;1304;97889;-90
2022/10/21 11:11:35;;;;;;;8.50;2.60;;;;;;;15.08;53.61;99258.29;103284;1304;97924;-85
2022/10/21 11:14:13;;;;;;;10.10;2.80;;;;;;;15.19;52.70;99251.02;103322;1297;110755;-87
2022/10/21 11:17:12;;;;;;;5.00;2.30;;;;;;;15.25;53.85;99242.09;103096;1290;98406;-85
2022/10/21 11:19:57;;;;;;;7.20;2.50;;;;;;;15.26;52.87;99232.87;103237;1302;107266;-87
2022/10/21 11:22:46;;;;;;;5.40;2.80;;;;;;;15.27;53.50;99233.69;103244;1303;97897;-87
2022/10/21 11:25:35;;;;;;;10.10;2.70;;;;;;;15.38;53.31;99233.48;103352;1297;97936;-84
2022/10/21 11:28:20;;;;;;;6.70;2.60;;;;;;;15.37;50.29;99233.14;103254;1296;110193;-84
2022/10/21 11:31:13;;;;;;;9.20;2.70;;;;;;;15.18;50.12;99229.15;103289;1302;97952;-85
2022/10/21 11:34:12;;;;;;;8.30;2.30;;;;;;;15.00;49.25;99228.74;103275;1304;106493;-89
2022/10/21 11:37:20;;;;;;;9.00;2.80;;;;;;;14.86;49.71;99224.10;103227;1304;95824;-80
2022/10/21 11:40:16;;;;;;;6.10;2.90;;;;;;;14.87;50.61;99220.77;103066;1306;97901;-84
2022/10/21 11:42:52;;;;;;;8.50;2.60;;;;;;;14.95;49.82;99223.84;103204;1296;110074;-87
2022/10/21 11:45:35;;;;;;;5.80;2.80;;;;;;;14.94;48.65;99218.77;103178;1302;98436;-82
2022/10/21 11:48:13;;;;;;;9.00;3.10;;;;;;;14.90;48.85;99211.73;103193;1304;105272;-91